Time;durP1;ratioP1;P1;durP2;ratioP2;P2;SDS_P1;SDS_P2;PMS_P1;PMS_P2;Temp;Humidity;BMP_temperature;BMP_pressure;BME280_temperature;BME280_humidity;BME280_pressure;Samples;Min_cycle;Max_cycle;Signal;HPM_P1;HPM_P2
2022/06/27 00:01:20;;;;;;;5.47;3.60;;;;;;;;;;5015415;28;20056;-61
2022/06/27 00:03:47;;;;;;;5.65;3.28;;;;;;;;;;5024535;28;20163;-64
2022/06/27 00:06:13;;;;;;;6.25;3.28;;;;;;;;;;5010970;28;20049;-64
2022/06/27 00:08:40;;;;;;;6.65;3.00;;;;;;;;;;5033431;28;20880;-63
2022/06/27 00:11:06;;;;;;;4.82;2.92;;;;;;;;;;5024789;28;20056;-64
2022/06/27 00:13:32;;;;;;;5.65;2.88;;;;;;;;;;5029400;28;20164;-64
2022/06/27 00:15:59;;;;;;;6.15;3.20;;;;;;;;;;5038236;28;20061;-64
2022/06/27 00:18:34;;;;;;;6.65;2.88;;;;;;;;;;5023317;28;20838;-64
2022/06/27 00:21:00;;;;;;;3.85;2.70;;;;;;;;;;5035014;28;20060;-64
2022/06/27 00:23:26;;;;;;;8.15;2.92;;;;;;;;;;5025308;28;20135;-64
2022/06/27 00:25:53;;;;;;;4.65;2.70;;;;;;;;;;5035664;28;20809;-64
2022/06/27 00:28:19;;;;;;;5.60;2.78;;;;;;;;;;5030058;28;20067;-63
2022/06/27 00:30:46;;;;;;;5.68;2.78;;;;;;;;;;5032648;28;20048;-64
2022/06/27 00:33:12;;;;;;;7.57;3.53;;;;;;;;;;5025017;28;20050;-64
2022/06/27 00:35:39;;;;;;;7.50;2.80;;;;;;;;;;5023279;28;20057;-63
2022/06/27 00:38:05;;;;;;;7.85;2.90;;;;;;;;;;5031142;28;20137;-63
2022/06/27 00:40:31;;;;;;;5.32;3.00;;;;;;;;;;5021809;28;20041;-63
2022/06/27 00:42:58;;;;;;;5.93;2.80;;;;;;;;;;5034552;28;20037;-65
2022/06/27 00:45:24;;;;;;;7.40;3.22;;;;;;;;;;5029737;28;20053;-64
2022/06/27 00:47:50;;;;;;;4.30;2.80;;;;;;;;;;5031986;28;20507;-64
2022/06/27 00:50:17;;;;;;;5.72;2.92;;;;;;;;;;5034561;28;20064;-64
2022/06/27 00:52:44;;;;;;;7.97;3.28;;;;;;;;;;5029822;28;20049;-65
2022/06/27 00:55:10;;;;;;;5.13;2.67;;;;;;;;;;5031934;28;20549;-64
2022/06/27 00:57:37;;;;;;;8.25;2.97;;;;;;;;;;5037165;28;20047;-64
2022/06/27 01:00:04;;;;;;;4.63;2.83;;;;;;;;;;5027136;28;20045;-65
2022/06/27 01:02:30;;;;;;;6.22;2.95;;;;;;;;;;5034312;28;20417;-63
2022/06/27 01:04:57;;;;;;;3.92;2.58;;;;;;;;;;5026632;28;20072;-63
2022/06/27 01:07:23;;;;;;;5.07;2.88;;;;;;;;;;5030292;28;20405;-63
2022/06/27 01:09:51;;;;;;;9.25;3.08;;;;;;;;;;5025735;28;20055;-64
2022/06/27 01:12:17;;;;;;;4.47;2.63;;;;;;;;;;5032605;28;20135;-65
2022/06/27 01:14:44;;;;;;;4.95;2.47;;;;;;;;;;5041379;28;20049;-64
2022/06/27 01:17:11;;;;;;;5.25;3.30;;;;;;;;;;5035698;28;20141;-64
2022/06/27 01:19:39;;;;;;;3.80;2.50;;;;;;;;;;5041113;28;20135;-63
2022/06/27 01:22:09;;;;;;;7.82;3.00;;;;;;;;;;5015872;28;20484;-64
2022/06/27 01:24:35;;;;;;;5.38;2.75;;;;;;;;;;5027749;28;20729;-64
2022/06/27 01:27:03;;;;;;;5.80;2.90;;;;;;;;;;5025748;28;20164;-64
2022/06/27 01:29:29;;;;;;;6.85;2.92;;;;;;;;;;5026405;28;20053;-63
2022/06/27 01:31:55;;;;;;;7.85;2.90;;;;;;;;;;5042414;28;20048;-64
2022/06/27 01:34:22;;;;;;;7.82;3.53;;;;;;;;;;5028013;28;20053;-64
2022/06/27 01:36:49;;;;;;;6.57;2.90;;;;;;;;;;5024164;28;20044;-64
2022/06/27 01:39:19;;;;;;;4.70;3.03;;;;;;;;;;5026167;28;20143;-64
2022/06/27 01:41:48;;;;;;;5.22;3.30;;;;;;;;;;5048632;28;20405;-64
2022/06/27 01:44:15;;;;;;;6.20;2.90;;;;;;;;;;5032080;28;20045;-64
2022/06/27 01:46:42;;;;;;;6.40;2.83;;;;;;;;;;5039028;28;20140;-64
2022/06/27 01:49:08;;;;;;;7.22;3.30;;;;;;;;;;5019445;28;20049;-64
2022/06/27 01:51:35;;;;;;;5.60;3.10;;;;;;;;;;5026156;28;20051;-64
2022/06/27 01:54:02;;;;;;;7.60;2.88;;;;;;;;;;5036063;28;20569;-62
2022/06/27 01:56:29;;;;;;;7.07;2.97;;;;;;;;;;5028670;28;20037;-64
2022/06/27 01:58:58;;;;;;;6.45;3.30;;;;;;;;;;5028056;28;20469;-64
2022/06/27 02:01:25;;;;;;;5.13;3.30;;;;;;;;;;5034101;28;20076;-65
2022/06/27 02:03:52;;;;;;;6.70;3.00;;;;;;;;;;5029931;28;20458;-65
2022/06/27 02:06:19;;;;;;;8.65;3.10;;;;;;;;;;5032858;28;20402;-65
2022/06/27 02:08:46;;;;;;;4.78;3.00;;;;;;;;;;5027204;28;20044;-64
2022/06/27 02:11:13;;;;;;;8.43;3.65;;;;;;;;;;5033172;28;20049;-63
2022/06/27 02:13:40;;;;;;;8.02;3.72;;;;;;;;;;5038499;28;20071;-63
2022/06/27 02:16:08;;;;;;;7.65;3.50;;;;;;;;;;5033800;28;20045;-64
2022/06/27 02:18:36;;;;;;;8.95;3.58;;;;;;;;;;5031735;28;20057;-64
2022/06/27 02:21:02;;;;;;;8.93;4.47;;;;;;;;;;5025854;28;20048;-65
2022/06/27 02:23:28;;;;;;;7.65;4.50;;;;;;;;;;5034602;28;20055;-64
2022/06/27 02:25:55;;;;;;;8.85;4.45;;;;;;;;;;5022983;28;21230;-64
2022/06/27 02:28:22;;;;;;;8.60;4.55;;;;;;;;;;5032132;28;20041;-64
2022/06/27 02:30:49;;;;;;;8.43;4.60;;;;;;;;;;5027954;28;20573;-64
2022/06/27 02:33:15;;;;;;;8.25;5.03;;;;;;;;;;5026531;28;20155;-65
2022/06/27 02:35:45;;;;;;;6.07;4.40;;;;;;;;;;5038679;28;20044;-64
2022/06/27 02:38:11;;;;;;;8.93;4.47;;;;;;;;;;5037439;28;20055;-64
2022/06/27 02:40:39;;;;;;;7.53;4.47;;;;;;;;;;5040816;28;20128;-64
2022/06/27 02:43:07;;;;;;;6.10;4.57;;;;;;;;;;5027855;28;20744;-63
2022/06/27 02:45:35;;;;;;;5.38;3.97;;;;;;;;;;5024687;28;20073;-63
2022/06/27 02:48:02;;;;;;;9.45;4.38;;;;;;;;;;5023495;28;20052;-65
2022/06/27 02:50:31;;;;;;;11.13;4.35;;;;;;;;;;5035402;28;20048;-65
2022/06/27 02:53:00;;;;;;;8.00;4.68;;;;;;;;;;5024248;28;20041;-64
2022/06/27 02:55:28;;;;;;;7.38;4.40;;;;;;;;;;5028122;28;20156;-63
2022/06/27 02:57:59;;;;;;;9.63;4.90;;;;;;;;;;5029535;28;20443;-62
2022/06/27 03:00:29;;;;;;;8.70;4.88;;;;;;;;;;5026668;28;20359;-63
2022/06/27 03:02:56;;;;;;;9.35;4.85;;;;;;;;;;5032609;28;20162;-62
2022/06/27 03:05:22;;;;;;;8.05;5.35;;;;;;;;;;5036886;28;20056;-65
2022/06/27 03:07:49;;;;;;;8.50;4.95;;;;;;;;;;5026284;28;20052;-66
2022/06/27 03:10:15;;;;;;;7.85;4.97;;;;;;;;;;5037392;28;20053;-64
2022/06/27 03:12:41;;;;;;;11.20;4.97;;;;;;;;;;5013465;28;20144;-64
2022/06/27 03:15:08;;;;;;;7.57;5.18;;;;;;;;;;5035144;28;20421;-64
2022/06/27 03:17:35;;;;;;;6.00;4.30;;;;;;;;;;5032538;28;20590;-64
2022/06/27 03:20:02;;;;;;;7.40;4.67;;;;;;;;;;5026523;28;20077;-64
2022/06/27 03:22:29;;;;;;;8.85;4.50;;;;;;;;;;5027304;28;20046;-65
2022/06/27 03:24:55;;;;;;;8.93;5.38;;;;;;;;;;5018211;28;20222;-64
2022/06/27 03:27:21;;;;;;;6.57;4.63;;;;;;;;;;5034652;28;20432;-64
2022/06/27 03:29:48;;;;;;;8.35;4.80;;;;;;;;;;5023079;28;20561;-63
2022/06/27 03:32:14;;;;;;;10.15;4.88;;;;;;;;;;5036116;28;20136;-64
2022/06/27 03:34:41;;;;;;;6.57;4.50;;;;;;;;;;5036790;28;20049;-63
2022/06/27 03:37:08;;;;;;;7.07;4.78;;;;;;;;;;5029738;28;20135;-64
2022/06/27 03:39:34;;;;;;;10.77;5.63;;;;;;;;;;5038874;28;20051;-64
2022/06/27 03:42:01;;;;;;;8.38;5.35;;;;;;;;;;5024240;28;20268;-64
2022/06/27 03:44:29;;;;;;;7.93;5.07;;;;;;;;;;5032219;28;20480;-65
2022/06/27 03:46:55;;;;;;;8.85;5.18;;;;;;;;;;5035678;28;20045;-63
2022/06/27 03:52:07;;;;;;;7.22;4.78;;;;;;;;;;5032241;28;20057;-63
2022/06/27 03:54:33;;;;;;;8.00;4.93;;;;;;;;;;5021823;28;20054;-64
2022/06/27 03:56:59;;;;;;;8.70;5.30;;;;;;;;;;5031008;28;20706;-64
2022/06/27 03:59:26;;;;;;;12.40;5.20;;;;;;;;;;5019719;28;20196;-65
2022/06/27 04:01:52;;;;;;;8.73;5.70;;;;;;;;;;5043494;28;20254;-63
2022/06/27 04:04:18;;;;;;;7.72;5.68;;;;;;;;;;5031771;28;20048;-64
2022/06/27 04:06:45;;;;;;;9.85;5.55;;;;;;;;;;5039266;28;20520;-64
2022/06/27 04:09:11;;;;;;;8.43;5.63;;;;;;;;;;5043871;28;20054;-64
2022/06/27 04:11:38;;;;;;;8.18;5.78;;;;;;;;;;5022588;28;20048;-64
2022/06/27 04:14:04;;;;;;;10.80;5.70;;;;;;;;;;5047815;28;20553;-65
2022/06/27 04:16:30;;;;;;;7.53;5.55;;;;;;;;;;5039978;28;20045;-64
2022/06/27 04:18:57;;;;;;;11.98;6.03;;;;;;;;;;5019123;28;20052;-64
2022/06/27 04:21:23;;;;;;;9.20;5.25;;;;;;;;;;5030741;28;20309;-63
2022/06/27 04:23:49;;;;;;;9.57;6.57;;;;;;;;;;5023864;28;20055;-64
2022/06/27 04:26:16;;;;;;;8.07;6.03;;;;;;;;;;5033974;28;20054;-64
2022/06/27 04:28:43;;;;;;;9.48;5.75;;;;;;;;;;5020132;28;20049;-63
2022/06/27 04:31:10;;;;;;;10.75;6.38;;;;;;;;;;5025769;28;20402;-64
2022/06/27 04:33:37;;;;;;;9.50;6.60;;;;;;;;;;5036115;28;20064;-63
2022/06/27 04:36:04;;;;;;;7.75;5.00;;;;;;;;;;5026784;28;20387;-64
2022/06/27 04:38:31;;;;;;;8.38;5.72;;;;;;;;;;5030847;28;20053;-63
2022/06/27 04:40:58;;;;;;;9.90;5.85;;;;;;;;;;5031240;28;20136;-64
2022/06/27 04:43:26;;;;;;;9.02;5.50;;;;;;;;;;5039067;28;20048;-65
2022/06/27 04:45:53;;;;;;;10.38;5.35;;;;;;;;;;5031031;28;20049;-63
2022/06/27 04:48:20;;;;;;;11.43;6.47;;;;;;;;;;5022143;28;20049;-64
2022/06/27 04:50:47;;;;;;;9.07;5.70;;;;;;;;;;5019457;28;20060;-64
2022/06/27 04:53:13;;;;;;;8.60;5.78;;;;;;;;;;5028831;28;20083;-65
2022/06/27 04:55:40;;;;;;;8.93;6.05;;;;;;;;;;5040289;28;20049;-64
2022/06/27 04:58:06;;;;;;;9.02;5.97;;;;;;;;;;5033725;28;20575;-64
2022/06/27 05:00:33;;;;;;;8.07;5.85;;;;;;;;;;5037780;28;20056;-64
2022/06/27 05:02:59;;;;;;;8.35;5.57;;;;;;;;;;5030346;28;20053;-63
2022/06/27 05:05:25;;;;;;;12.40;6.32;;;;;;;;;;5037861;28;20480;-64
2022/06/27 05:07:52;;;;;;;8.45;5.63;;;;;;;;;;5035711;28;20437;-64
2022/06/27 05:10:18;;;;;;;8.82;5.50;;;;;;;;;;5026457;28;20463;-63
2022/06/27 05:12:45;;;;;;;11.82;6.20;;;;;;;;;;5031649;28;20055;-64
2022/06/27 05:15:11;;;;;;;10.02;6.25;;;;;;;;;;5024284;28;20060;-64
2022/06/27 05:17:37;;;;;;;9.32;6.32;;;;;;;;;;5008993;28;20513;-63
2022/06/27 05:20:06;;;;;;;9.52;5.95;;;;;;;;;;5022493;28;20092;-64
2022/06/27 05:22:32;;;;;;;9.47;6.00;;;;;;;;;;5033369;28;20410;-64
2022/06/27 05:24:58;;;;;;;7.75;5.55;;;;;;;;;;5025830;28;20057;-64
2022/06/27 05:27:26;;;;;;;10.68;5.45;;;;;;;;;;5015306;28;20132;-64
2022/06/27 05:29:52;;;;;;;11.88;6.60;;;;;;;;;;5037458;28;20045;-65
2022/06/27 05:32:18;;;;;;;9.80;6.82;;;;;;;;;;5027373;28;20604;-64
2022/06/27 05:34:45;;;;;;;11.00;7.10;;;;;;;;;;5012615;28;20501;-64
2022/06/27 05:37:11;;;;;;;13.05;7.85;;;;;;;;;;5029461;28;20457;-64
2022/06/27 05:39:40;;;;;;;12.68;7.13;;;;;;;;;;5023214;28;20570;-64
2022/06/27 05:42:06;;;;;;;11.57;8.63;;;;;;;;;;5021684;28;20136;-63
2022/06/27 05:44:32;;;;;;;11.20;7.60;;;;;;;;;;5031921;28;20511;-64
2022/06/27 05:46:59;;;;;;;11.05;8.48;;;;;;;;;;5022320;28;20068;-63
2022/06/27 05:49:26;;;;;;;15.15;11.05;;;;;;;;;;5032322;28;20084;-64
2022/06/27 05:51:54;;;;;;;12.50;9.57;;;;;;;;;;5016548;28;20053;-64
2022/06/27 05:54:24;;;;;;;13.60;9.43;;;;;;;;;;5028335;28;20570;-64
2022/06/27 05:56:50;;;;;;;13.75;9.18;;;;;;;;;;5017420;28;20500;-65
2022/06/27 05:59:17;;;;;;;13.18;9.77;;;;;;;;;;5028609;28;20319;-64
2022/06/27 06:01:45;;;;;;;14.85;9.13;;;;;;;;;;5028280;28;20168;-64
2022/06/27 06:04:13;;;;;;;12.93;9.50;;;;;;;;;;5021687;28;20076;-64
2022/06/27 06:06:43;;;;;;;12.55;8.82;;;;;;;;;;5023471;28;20049;-64
2022/06/27 06:09:10;;;;;;;14.73;9.32;;;;;;;;;;5018996;28;20045;-63
2022/06/27 06:11:38;;;;;;;12.60;8.60;;;;;;;;;;5037036;28;20049;-63
2022/06/27 06:14:04;;;;;;;11.68;8.73;;;;;;;;;;5031908;28;20567;-65
2022/06/27 06:16:31;;;;;;;14.80;9.38;;;;;;;;;;5024293;28;20528;-64
2022/06/27 06:18:59;;;;;;;10.40;8.32;;;;;;;;;;5028096;28;20475;-67
2022/06/27 06:21:26;;;;;;;13.43;7.90;;;;;;;;;;5028856;28;20049;-64
2022/06/27 06:23:52;;;;;;;13.68;8.40;;;;;;;;;;5041567;28;20048;-64
2022/06/27 06:26:19;;;;;;;11.82;7.95;;;;;;;;;;5032072;28;20516;-64
2022/06/27 06:28:48;;;;;;;13.48;7.88;;;;;;;;;;5034467;28;20494;-64
2022/06/27 06:31:21;;;;;;;12.45;8.25;;;;;;;;;;5027867;28;20621;-64
2022/06/27 06:33:52;;;;;;;13.70;9.13;;;;;;;;;;5019977;28;20080;-64
2022/06/27 06:36:21;;;;;;;16.05;8.75;;;;;;;;;;5026442;28;20056;-64
2022/06/27 06:38:47;;;;;;;12.50;8.68;;;;;;;;;;5042084;28;20044;-64
2022/06/27 06:41:14;;;;;;;11.77;8.52;;;;;;;;;;5028277;28;20056;-64
2022/06/27 06:43:41;;;;;;;12.68;8.70;;;;;;;;;;5029553;28;20545;-64
2022/06/27 06:46:09;;;;;;;11.95;8.52;;;;;;;;;;5037560;28;20053;-64
2022/06/27 06:48:37;;;;;;;9.98;8.25;;;;;;;;;;5029439;28;20042;-63
2022/06/27 06:51:04;;;;;;;13.38;9.20;;;;;;;;;;5023423;28;20160;-64
2022/06/27 06:53:31;;;;;;;17.97;10.57;;;;;;;;;;5039102;28;20135;-64
2022/06/27 06:55:57;;;;;;;13.82;8.52;;;;;;;;;;5019711;28;20747;-64
2022/06/27 06:58:25;;;;;;;9.70;8.18;;;;;;;;;;5031760;28;20055;-65
2022/06/27 07:00:51;;;;;;;12.05;8.43;;;;;;;;;;5030398;28;20524;-63
2022/06/27 07:03:20;;;;;;;11.95;8.38;;;;;;;;;;5030944;28;20045;-64
2022/06/27 07:05:47;;;;;;;12.63;8.48;;;;;;;;;;5023908;28;20049;-64
2022/06/27 07:08:13;;;;;;;17.88;8.27;;;;;;;;;;5015873;28;20425;-63
2022/06/27 07:10:40;;;;;;;13.50;8.93;;;;;;;;;;5017723;28;20570;-64
2022/06/27 07:13:07;;;;;;;12.30;7.87;;;;;;;;;;5011286;28;20052;-63
2022/06/27 07:15:33;;;;;;;11.48;8.02;;;;;;;;;;5017865;28;20316;-65
2022/06/27 07:18:02;;;;;;;13.93;8.32;;;;;;;;;;5035347;28;20159;-64
2022/06/27 07:20:30;;;;;;;12.45;8.30;;;;;;;;;;5016009;28;20073;-65
2022/06/27 07:22:57;;;;;;;;;;;;;;;;;;5043660;28;20048;-63
2022/06/27 07:25:25;;;;;;;10.17;7.47;;;;;;;;;;5016251;28;20012;-65
2022/06/27 07:27:51;;;;;;;12.63;8.77;;;;;;;;;;5030758;28;20053;-63
2022/06/27 07:30:19;;;;;;;11.40;8.05;;;;;;;;;;5013689;28;20536;-66
2022/06/27 07:32:46;;;;;;;13.23;8.35;;;;;;;;;;5042375;28;20492;-63
2022/06/27 07:35:13;;;;;;;13.50;8.85;;;;;;;;;;5029806;28;20045;-65
2022/06/27 07:37:44;;;;;;;11.57;9.13;;;;;;;;;;5020199;28;20124;-64
2022/06/27 07:40:11;;;;;;;11.30;8.23;;;;;;;;;;5037290;28;20513;-64
2022/06/27 07:42:45;;;;;;;14.43;8.10;;;;;;;;;;5021233;28;20061;-64
2022/06/27 07:45:18;;;;;;;12.88;8.27;;;;;;;;;;5040735;28;20052;-64
2022/06/27 07:47:46;;;;;;;10.27;8.85;;;;;;;;;;5033480;28;20044;-64
2022/06/27 07:50:36;;;;;;;13.02;9.07;;;;;;;;;;5029776;28;20577;-63
2022/06/27 07:53:12;;;;;;;12.90;8.90;;;;;;;;;;5022810;28;20053;-64
2022/06/27 07:55:42;;;;;;;13.35;9.80;;;;;;;;;;5016840;28;20049;-64
2022/06/27 07:58:16;;;;;;;9.18;7.90;;;;;;;;;;5029762;28;20629;-63
2022/06/27 08:00:44;;;;;;;13.05;8.95;;;;;;;;;;5033069;28;20502;-64
2022/06/27 08:06:00;;;;;;;12.00;8.23;;;;;;;;;;5025822;28;20111;-63
2022/06/27 08:08:28;;;;;;;12.35;8.93;;;;;;;;;;5032073;28;20200;-64
2022/06/27 08:10:55;;;;;;;14.95;9.32;;;;;;;;;;5028861;28;20047;-64
2022/06/27 08:13:21;;;;;;;15.23;9.38;;;;;;;;;;5031755;28;20041;-63
2022/06/27 08:15:48;;;;;;;12.82;10.48;;;;;;;;;;5042947;28;20055;-65
2022/06/27 08:18:15;;;;;;;13.40;9.13;;;;;;;;;;5025241;28;20049;-64
2022/06/27 08:20:42;;;;;;;14.00;9.75;;;;;;;;;;5032414;28;20060;-63
2022/06/27 08:23:15;;;;;;;11.35;9.18;;;;;;;;;;5024851;28;20079;-62
2022/06/27 08:25:42;;;;;;;12.05;9.75;;;;;;;;;;5032631;28;20345;-63
2022/06/27 08:28:09;;;;;;;13.32;9.07;;;;;;;;;;5040815;28;20053;-64
2022/06/27 08:30:37;;;;;;;14.13;9.80;;;;;;;;;;5026523;28;20049;-64
2022/06/27 08:33:03;;;;;;;18.10;10.00;;;;;;;;;;5030410;28;20535;-64
2022/06/27 08:35:30;;;;;;;15.48;9.75;;;;;;;;;;5024573;28;20539;-63
2022/06/27 08:37:58;;;;;;;12.57;9.00;;;;;;;;;;5036226;28;20049;-65
2022/06/27 08:40:25;;;;;;;;;;;;;;;;;;5041471;28;20615;-64
2022/06/27 08:42:53;;;;;;;15.57;8.15;;;;;;;;;;5036582;28;20258;-65
2022/06/27 08:45:23;;;;;;;10.48;7.05;;;;;;;;;;5032044;28;20493;-64
2022/06/27 08:47:50;;;;;;;11.27;6.55;;;;;;;;;;5019771;28;20045;-64
2022/06/27 08:50:17;;;;;;;11.50;6.33;;;;;;;;;;5019928;28;20057;-64
2022/06/27 08:52:47;;;;;;;10.43;6.03;;;;;;;;;;5018386;28;20286;-64
2022/06/27 08:55:13;;;;;;;8.13;5.97;;;;;;;;;;5041538;28;20049;-62
2022/06/27 08:57:41;;;;;;;10.32;5.72;;;;;;;;;;5029496;28;20055;-63
2022/06/27 09:00:09;;;;;;;12.88;6.32;;;;;;;;;;5034223;28;20055;-63
2022/06/27 09:02:43;;;;;;;12.02;6.68;;;;;;;;;;5032525;28;20045;-64
2022/06/27 09:05:15;;;;;;;11.63;7.47;;;;;;;;;;5019162;28;20523;-64
2022/06/27 09:07:48;;;;;;;11.02;7.95;;;;;;;;;;5042312;28;20048;-62
2022/06/27 09:10:23;;;;;;;11.23;8.07;;;;;;;;;;5022425;28;20065;-64
2022/06/27 09:12:56;;;;;;;10.93;7.47;;;;;;;;;;5034489;28;20055;-64
2022/06/27 09:15:25;;;;;;;12.52;7.03;;;;;;;;;;5041302;28;20434;-63
2022/06/27 09:18:00;;;;;;;11.68;7.10;;;;;;;;;;5027525;28;20051;-64
2022/06/27 09:20:46;;;;;;;8.60;6.78;;;;;;;;;;5031876;28;20060;-64
2022/06/27 09:23:25;;;;;;;12.40;7.35;;;;;;;;;;5017825;28;20060;-63
2022/06/27 09:25:59;;;;;;;11.00;6.68;;;;;;;;;;5036875;28;20412;-64
2022/06/27 09:28:36;;;;;;;8.98;5.72;;;;;;;;;;5014609;28;20045;-64
2022/06/27 09:31:02;;;;;;;11.07;7.27;;;;;;;;;;5027245;28;20576;-64
2022/06/27 09:33:31;;;;;;;8.27;6.35;;;;;;;;;;5027036;28;20286;-64
2022/06/27 09:35:57;;;;;;;10.00;5.85;;;;;;;;;;5033689;28;20128;-64
2022/06/27 09:38:25;;;;;;;8.50;5.72;;;;;;;;;;5038068;28;20053;-64
2022/06/27 09:40:51;;;;;;;9.18;6.53;;;;;;;;;;5031531;28;20048;-64
2022/06/27 09:43:22;;;;;;;11.48;6.03;;;;;;;;;;5036735;28;20056;-63
2022/06/27 09:45:49;;;;;;;9.98;5.95;;;;;;;;;;5020804;28;20048;-65
2022/06/27 09:48:17;;;;;;;10.63;5.68;;;;;;;;;;5038079;28;20068;-63
2022/06/27 09:50:44;;;;;;;9.45;6.95;;;;;;;;;;5018931;28;20049;-64
2022/06/27 09:53:11;;;;;;;10.20;5.70;;;;;;;;;;5022163;28;20514;-64
2022/06/27 09:55:38;;;;;;;9.55;5.10;;;;;;;;;;5033681;28;20139;-63
2022/06/27 09:58:06;;;;;;;7.85;5.00;;;;;;;;;;5026836;28;20056;-63
2022/06/27 10:00:33;;;;;;;7.82;4.65;;;;;;;;;;5044361;28;20406;-64
2022/06/27 10:03:01;;;;;;;8.33;4.20;;;;;;;;;;5031067;28;20586;-63
2022/06/27 10:05:27;;;;;;;;;;;;;;;;;;5038278;28;20290;-63
2022/06/27 10:07:59;;;;;;;6.60;3.83;;;;;;;;;;5040488;28;20019;-64
2022/06/27 10:10:29;;;;;;;6.90;3.90;;;;;;;;;;5016396;28;20457;-64
2022/06/27 10:12:57;;;;;;;7.10;3.83;;;;;;;;;;5032232;28;20316;-64
2022/06/27 10:15:25;;;;;;;8.70;4.03;;;;;;;;;;5028849;28;20045;-64
2022/06/27 10:17:52;;;;;;;5.25;3.28;;;;;;;;;;5024358;28;20149;-62
2022/06/27 10:20:38;;;;;;;9.50;3.72;;;;;;;;;;5019503;28;20390;-65
2022/06/27 10:23:11;;;;;;;8.82;4.65;;;;;;;;;;5042638;28;20128;-63
2022/06/27 10:25:38;;;;;;;8.70;4.70;;;;;;;;;;5025233;28;20091;-63
2022/06/27 10:28:16;;;;;;;8.13;4.50;;;;;;;;;;5024970;28;20057;-65
2022/06/27 10:30:47;;;;;;;9.88;4.20;;;;;;;;;;5037017;28;20041;-64
2022/06/27 10:33:22;;;;;;;9.32;4.47;;;;;;;;;;5021108;28;20411;-64
2022/06/27 10:35:55;;;;;;;9.57;5.00;;;;;;;;;;5033840;28;20049;-65
2022/06/27 10:38:25;;;;;;;7.38;3.97;;;;;;;;;;5017071;28;20049;-65
2022/06/27 10:40:52;;;;;;;7.18;3.70;;;;;;;;;;5032197;28;20124;-64
2022/06/27 10:43:31;;;;;;;7.70;4.03;;;;;;;;;;5026163;28;20418;-64
2022/06/27 10:45:57;;;;;;;8.20;3.90;;;;;;;;;;5042100;28;20049;-64
2022/06/27 10:48:34;;;;;;;7.90;3.60;;;;;;;;;;5040751;28;20076;-62
2022/06/27 10:51:19;;;;;;;8.05;3.58;;;;;;;;;;5023754;28;20048;-63
2022/06/27 10:53:46;;;;;;;7.38;3.80;;;;;;;;;;5024458;28;20041;-64
2022/06/27 10:56:31;;;;;;;7.25;3.65;;;;;;;;;;5025575;28;20045;-64
2022/06/27 10:58:58;;;;;;;7.63;3.75;;;;;;;;;;5034683;28;20042;-63
2022/06/27 11:01:24;;;;;;;8.98;3.97;;;;;;;;;;5023832;28;20048;-64
2022/06/27 11:03:51;;;;;;;8.30;3.58;;;;;;;;;;5032009;28;20578;-64
2022/06/27 11:06:17;;;;;;;7.30;3.58;;;;;;;;;;5018664;28;20056;-64
2022/06/27 11:08:46;;;;;;;9.15;3.42;;;;;;;;;;5022530;28;20060;-63
2022/06/27 11:11:25;;;;;;;5.55;2.72;;;;;;;;;;5036172;28;20546;-64
2022/06/27 11:13:55;;;;;;;4.65;2.38;;;;;;;;;;5033203;28;20064;-64
2022/06/27 11:16:22;;;;;;;7.45;2.30;;;;;;;;;;5035773;28;20552;-64
2022/06/27 11:18:53;;;;;;;5.30;2.30;;;;;;;;;;5026385;28;20522;-64
2022/06/27 11:21:23;;;;;;;6.07;2.90;;;;;;;;;;5024943;28;20438;-64
2022/06/27 11:23:54;;;;;;;8.65;3.60;;;;;;;;;;5025975;28;20045;-65
2022/06/27 11:26:21;;;;;;;9.10;3.95;;;;;;;;;;5014302;28;20042;-64
2022/06/27 11:34:29;;;;;;;8.43;3.88;;;;;;;;;;5018974;28;20422;-64
2022/06/27 11:36:56;;;;;;;6.85;3.33;;;;;;;;;;5020742;28;20045;-65
2022/06/27 11:39:27;;;;;;;6.77;2.97;;;;;;;;;;5037348;28;20041;-64
2022/06/27 11:42:00;;;;;;;7.05;3.08;;;;;;;;;;5029327;28;20051;-65
2022/06/27 11:44:27;;;;;;;8.30;3.40;;;;;;;;;;5026320;28;20079;-65
2022/06/27 11:47:03;;;;;;;4.82;2.50;;;;;;;;;;5021647;28;20080;-64
2022/06/27 11:49:30;;;;;;;4.18;2.05;;;;;;;;;;5019395;28;20140;-63
2022/06/27 11:52:02;;;;;;;5.20;2.17;;;;;;;;;;5031157;28;20047;-64
2022/06/27 11:54:49;;;;;;;8.48;2.75;;;;;;;;;;5031388;28;20053;-64
2022/06/27 11:57:22;;;;;;;7.65;3.17;;;;;;;;;;5020961;28;20140;-64
2022/06/27 11:59:49;;;;;;;6.68;2.60;;;;;;;;;;5026545;28;20478;-64
2022/06/27 12:02:26;;;;;;;7.40;3.17;;;;;;;;;;5030881;28;20059;-64
2022/06/27 12:05:13;;;;;;;7.97;2.83;;;;;;;;;;5029602;28;20104;-64
2022/06/27 12:07:52;;;;;;;10.00;3.55;;;;;;;;;;5025934;28;20517;-64
2022/06/27 12:10:37;;;;;;;11.75;3.60;;;;;;;;;;5030680;28;20049;-65
2022/06/27 12:13:08;;;;;;;8.52;3.10;;;;;;;;;;5024148;28;20072;-63
2022/06/27 12:15:35;;;;;;;7.32;3.22;;;;;;;;;;5035484;28;20053;-64
2022/06/27 12:18:02;;;;;;;7.53;3.45;;;;;;;;;;5019477;28;20298;-64
2022/06/27 12:20:29;;;;;;;6.13;3.50;;;;;;;;;;5026161;28;20049;-64
2022/06/27 12:22:55;;;;;;;9.43;3.17;;;;;;;;;;5028011;28;20416;-64
2022/06/27 12:25:22;;;;;;;6.60;3.03;;;;;;;;;;5016069;28;20121;-62
2022/06/27 12:27:49;;;;;;;7.25;2.53;;;;;;;;;;5028340;28;20045;-63
2022/06/27 12:30:16;;;;;;;8.43;2.72;;;;;;;;;;5018050;28;20059;-63
2022/06/27 12:32:42;;;;;;;8.68;3.20;;;;;;;;;;5016040;28;20055;-64
2022/06/27 12:35:09;;;;;;;5.72;2.70;;;;;;;;;;5031404;28;20417;-64
2022/06/27 12:37:39;;;;;;;7.07;2.70;;;;;;;;;;5038017;28;20103;-63
2022/06/27 12:40:06;;;;;;;6.55;2.67;;;;;;;;;;5035135;28;20139;-64
2022/06/27 12:42:33;;;;;;;9.02;3.15;;;;;;;;;;5024183;28;20045;-64
2022/06/27 12:44:59;;;;;;;8.65;3.10;;;;;;;;;;5034449;28;20045;-65
2022/06/27 12:47:26;;;;;;;6.68;2.90;;;;;;;;;;5023192;28;20644;-64
2022/06/27 12:49:52;;;;;;;6.45;3.00;;;;;;;;;;5036855;28;20075;-64
2022/06/27 12:52:18;;;;;;;6.30;2.67;;;;;;;;;;5028780;28;20593;-64
2022/06/27 12:54:45;;;;;;;10.02;3.20;;;;;;;;;;5014228;28;20072;-64
2022/06/27 12:57:13;;;;;;;6.35;3.22;;;;;;;;;;5028930;28;20049;-64
2022/06/27 12:59:40;;;;;;;10.27;3.13;;;;;;;;;;5011935;28;20087;-64
2022/06/27 13:02:07;;;;;;;7.85;3.22;;;;;;;;;;5045692;28;20572;-64
2022/06/27 13:04:33;;;;;;;8.07;3.38;;;;;;;;;;5027418;28;20136;-65
2022/06/27 13:07:00;;;;;;;7.53;3.50;;;;;;;;;;5031612;28;20177;-64
2022/06/27 13:09:26;;;;;;;6.80;2.92;;;;;;;;;;5040268;28;20059;-64
2022/06/27 13:11:52;;;;;;;10.48;3.78;;;;;;;;;;5023619;28;20057;-65
2022/06/27 13:14:19;;;;;;;7.97;3.35;;;;;;;;;;5032816;28;20381;-66
2022/06/27 13:16:46;;;;;;;7.10;3.00;;;;;;;;;;5021406;28;20642;-65
2022/06/27 13:19:12;;;;;;;7.68;2.90;;;;;;;;;;5028957;28;20646;-65
2022/06/27 13:21:39;;;;;;;9.07;3.70;;;;;;;;;;5027723;28;20045;-65
2022/06/27 13:24:05;;;;;;;8.45;3.30;;;;;;;;;;5030772;28;20139;-65
2022/06/27 13:26:47;;;;;;;8.70;3.67;;;;;;;;;;5031764;28;20503;-66
2022/06/27 13:29:14;;;;;;;6.35;3.22;;;;;;;;;;5026446;28;20132;-64
2022/06/27 13:31:40;;;;;;;7.57;3.55;;;;;;;;;;5039225;28;20052;-64
2022/06/27 13:34:06;;;;;;;8.25;3.80;;;;;;;;;;5027393;28;20060;-64
2022/06/27 13:36:53;;;;;;;6.97;3.55;;;;;;;;;;5033283;28;20045;-64
2022/06/27 13:39:21;;;;;;;10.00;4.07;;;;;;;;;;5031298;28;20306;-64
2022/06/27 13:41:47;;;;;;;6.45;3.40;;;;;;;;;;5025986;28;20447;-64
2022/06/27 13:44:13;;;;;;;9.00;3.88;;;;;;;;;;5038259;28;20136;-64
2022/06/27 13:46:40;;;;;;;8.45;3.35;;;;;;;;;;5031217;28;20056;-64
2022/06/27 13:49:06;;;;;;;4.60;2.92;;;;;;;;;;5035265;28;20529;-63
2022/06/27 13:51:32;;;;;;;7.85;4.55;;;;;;;;;;5020256;28;20478;-64
2022/06/27 13:53:59;;;;;;;9.60;5.65;;;;;;;;;;5021243;28;20285;-63
2022/06/27 13:56:25;;;;;;;9.38;5.65;;;;;;;;;;5022755;28;20483;-64
2022/06/27 13:58:51;;;;;;;16.52;7.38;;;;;;;;;;5030515;28;20561;-63
2022/06/27 14:01:18;;;;;;;13.93;4.90;;;;;;;;;;5034484;28;20049;-62
2022/06/27 14:03:45;;;;;;;11.85;4.57;;;;;;;;;;5017785;28;20465;-62
2022/06/27 14:09:01;;;;;;;6.00;1.75;;;;;;;;;;4991567;28;20067;-62
2022/06/27 14:11:27;;;;;;;6.80;1.88;;;;;;;;;;5036256;28;20079;-62
2022/06/27 14:13:54;;;;;;;3.25;1.30;;;;;;;;;;5031439;28;20136;-62
2022/06/27 14:16:22;;;;;;;5.55;1.80;;;;;;;;;;5018571;28;20154;-61
2022/06/27 14:18:49;;;;;;;7.65;2.08;;;;;;;;;;5028788;28;20052;-61
2022/06/27 14:21:15;;;;;;;4.35;1.73;;;;;;;;;;5007768;28;20071;-61
2022/06/27 14:23:42;;;;;;;3.83;1.30;;;;;;;;;;5025164;28;20501;-61
2022/06/27 14:26:08;;;;;;;5.85;1.50;;;;;;;;;;5032697;28;20049;-63
2022/06/27 14:28:34;;;;;;;5.97;1.70;;;;;;;;;;5029346;28;20276;-60
2022/06/27 14:31:01;;;;;;;9.93;1.33;;;;;;;;;;5030888;28;20131;-62
2022/06/27 14:33:27;;;;;;;5.13;1.40;;;;;;;;;;5019244;28;20348;-62
2022/06/27 14:35:54;;;;;;;5.90;1.50;;;;;;;;;;5030803;28;20049;-61
2022/06/27 14:38:25;;;;;;;6.40;1.58;;;;;;;;;;5016514;28;20056;-60
2022/06/27 14:40:52;;;;;;;4.45;1.52;;;;;;;;;;5034315;28;20049;-62
2022/06/27 14:43:18;;;;;;;4.40;1.50;;;;;;;;;;5037869;28;20049;-62
2022/06/27 14:45:44;;;;;;;2.20;1.27;;;;;;;;;;5021339;28;20532;-62
2022/06/27 14:48:11;;;;;;;5.35;1.55;;;;;;;;;;5022864;28;20064;-62
2022/06/27 14:50:37;;;;;;;5.22;1.40;;;;;;;;;;5007158;28;20099;-61
2022/06/27 14:53:04;;;;;;;3.85;1.42;;;;;;;;;;5038602;28;20067;-61
2022/06/27 14:55:30;;;;;;;3.25;1.23;;;;;;;;;;5037287;28;20606;-62
2022/06/27 14:57:56;;;;;;;3.40;1.45;;;;;;;;;;5022350;28;20084;-62
2022/06/27 15:00:24;;;;;;;3.03;1.42;;;;;;;;;;5037660;28;20450;-63